createdAt,value
2022-09-28T00:02:19.605Z,99.90
2022-09-28T00:04:49.725Z,99.90
2022-09-28T00:07:19.807Z,99.90
2022-09-28T00:09:49.868Z,99.90
2022-09-28T00:12:27.397Z,99.90
2022-09-28T00:14:57.540Z,99.90
2022-09-28T00:17:27.661Z,99.90
2022-09-28T00:19:59.522Z,99.90
2022-09-28T00:22:30.968Z,99.90
2022-09-28T00:25:03.987Z,99.90
2022-09-28T00:27:36.623Z,99.90
2022-09-28T00:30:08.101Z,99.90
2022-09-28T00:32:38.408Z,99.90
2022-09-28T00:35:09.898Z,99.90
2022-09-28T00:37:40.895Z,99.90
2022-09-28T00:40:14.615Z,99.90
2022-09-28T00:42:53.437Z,99.90
2022-09-28T00:45:25.119Z,99.90
2022-09-28T00:48:01.517Z,99.90
2022-09-28T00:50:37.438Z,99.90
2022-09-28T00:53:14.486Z,99.90
2022-09-28T00:55:51.275Z,99.90
2022-09-28T00:58:34.160Z,99.90
2022-09-28T01:01:07.862Z,99.90
2022-09-28T01:03:41.308Z,99.90
2022-09-28T01:06:13.401Z,99.90
2022-09-28T01:08:50.475Z,99.90
2022-09-28T01:11:22.340Z,99.90
2022-09-28T01:13:59.300Z,99.90
2022-09-28T01:16:44.774Z,99.90
2022-09-28T01:19:40.468Z,99.90
2022-09-28T01:22:34.302Z,99.90
2022-09-28T01:25:15.194Z,99.90
2022-09-28T01:27:56.892Z,99.90
2022-09-28T01:30:32.971Z,99.90
2022-09-28T01:33:11.970Z,99.90
2022-09-28T01:35:56.919Z,99.90
2022-09-28T01:38:34.307Z,99.90
2022-09-28T01:41:05.973Z,99.90
2022-09-28T01:43:42.996Z,99.90
2022-09-28T01:46:19.559Z,99.90
2022-09-28T01:48:57.036Z,99.90
2022-09-28T01:51:51.343Z,99.90
2022-09-28T01:54:29.655Z,99.90
2022-09-28T01:57:15.022Z,99.90
2022-09-28T01:59:58.528Z,99.90
2022-09-28T02:02:38.747Z,99.90
2022-09-28T02:05:18.528Z,99.90
2022-09-28T02:07:56.752Z,99.90
2022-09-28T02:10:38.178Z,99.90
2022-09-28T02:13:17.225Z,99.90
2022-09-28T02:15:57.285Z,99.90
2022-09-28T02:18:27.938Z,99.90
2022-09-28T02:21:09.897Z,99.90
2022-09-28T02:23:45.389Z,99.90
2022-09-28T02:26:25.937Z,99.90
2022-09-28T02:28:56.215Z,99.90
2022-09-28T02:31:29.819Z,99.90
2022-09-28T02:34:00.949Z,99.90
2022-09-28T02:36:32.515Z,99.90
2022-09-28T02:39:03.920Z,99.90
2022-09-28T02:41:54.657Z,99.90
2022-09-28T02:44:48.127Z,99.90
2022-09-28T02:47:39.443Z,99.90
2022-09-28T02:50:22.776Z,99.90
2022-09-28T02:53:28.372Z,99.90
2022-09-28T02:56:34.052Z,99.90
2022-09-28T02:59:19.539Z,99.90
2022-09-28T03:02:04.800Z,99.90
2022-09-28T03:04:58.640Z,99.90
2022-09-28T03:07:35.104Z,99.90
2022-09-28T03:10:16.110Z,99.90
2022-09-28T03:12:49.836Z,99.90
2022-09-28T03:15:27.028Z,99.90
2022-09-28T03:17:57.701Z,99.90
2022-09-28T03:20:36.190Z,99.90
2022-09-28T03:23:25.431Z,99.90
2022-09-28T03:25:56.161Z,99.90
2022-09-28T03:28:29.675Z,99.90
2022-09-28T03:31:00.180Z,99.90
2022-09-28T03:33:30.215Z,99.90
2022-09-28T03:36:06.065Z,99.90
2022-09-28T03:38:36.163Z,99.90
2022-09-28T03:41:08.439Z,99.90
2022-09-28T03:43:38.695Z,99.90
2022-09-28T03:46:09.149Z,99.90
2022-09-28T03:48:40.221Z,99.90
2022-09-28T03:51:16.613Z,99.90
2022-09-28T03:53:49.351Z,99.90
2022-09-28T03:56:25.483Z,99.90
2022-09-28T03:58:55.672Z,99.90
2022-09-28T04:01:25.931Z,99.90
2022-09-28T04:03:59.183Z,99.90
2022-09-28T04:06:31.959Z,99.90
2022-09-28T04:09:02.264Z,99.90
2022-09-28T04:11:59.470Z,99.90
2022-09-28T04:14:31.545Z,99.90
2022-09-28T04:17:01.841Z,99.90
2022-09-28T04:19:31.895Z,99.90
2022-09-28T04:22:04.960Z,99.90
2022-09-28T04:24:35.087Z,99.90
2022-09-28T04:27:17.452Z,99.90
2022-09-28T04:29:47.511Z,99.90
2022-09-28T04:32:20.493Z,99.90
2022-09-28T04:34:51.376Z,99.90
2022-09-28T04:37:26.527Z,99.90
2022-09-28T04:39:56.528Z,99.90
2022-09-28T04:42:26.659Z,99.90
2022-09-28T04:44:58.030Z,99.90
2022-09-28T04:47:28.100Z,99.90
2022-09-28T04:49:58.166Z,99.90
2022-09-28T04:52:33.727Z,99.90
2022-09-28T04:55:03.851Z,99.90
2022-09-28T04:57:34.028Z,99.90
2022-09-28T05:00:04.693Z,99.90
2022-09-28T05:02:34.830Z,99.90
2022-09-28T05:05:05.043Z,99.90
2022-09-28T05:07:37.711Z,99.90
2022-09-28T05:10:08.777Z,99.90
2022-09-28T05:12:38.893Z,99.90
2022-09-28T05:15:10.257Z,99.90
2022-09-28T05:17:40.385Z,99.90
2022-09-28T05:20:13.435Z,99.90
2022-09-28T05:22:46.071Z,99.90
2022-09-28T05:25:16.331Z,99.90
2022-09-28T05:27:46.354Z,99.90
2022-09-28T05:30:17.220Z,99.90
2022-09-28T05:32:47.627Z,99.90
2022-09-28T05:35:21.206Z,99.90
2022-09-28T05:38:08.811Z,99.90
2022-09-28T05:40:38.997Z,99.90
2022-09-28T05:43:11.805Z,99.90
2022-09-28T05:45:42.012Z,99.90
2022-09-28T05:48:12.343Z,99.90
2022-09-28T05:50:45.686Z,99.90
2022-09-28T05:53:20.514Z,99.90
2022-09-28T05:55:53.423Z,99.90
2022-09-28T05:58:23.468Z,99.90
2022-09-28T06:00:58.273Z,99.90
2022-09-28T06:03:28.834Z,99.90
2022-09-28T06:05:58.926Z,99.90
2022-09-28T06:08:35.233Z,99.90
2022-09-28T06:11:06.023Z,99.90
2022-09-28T06:13:38.643Z,99.90
2022-09-28T06:16:11.505Z,99.90
2022-09-28T06:18:41.589Z,99.90
2022-09-28T06:21:19.160Z,99.90
2022-09-28T06:23:53.974Z,99.90
2022-09-28T06:26:26.418Z,99.90
2022-09-28T06:28:56.593Z,99.90
2022-09-28T06:31:30.203Z,99.90
2022-09-28T06:34:02.130Z,99.90
2022-09-28T06:36:35.502Z,99.90
2022-09-28T06:39:13.740Z,99.90
2022-09-28T06:41:44.251Z,99.90
2022-09-28T06:44:14.399Z,99.90
2022-09-28T06:46:44.591Z,99.90
2022-09-28T06:49:19.207Z,99.90
2022-09-28T06:51:51.978Z,99.90
2022-09-28T06:54:30.717Z,99.90
2022-09-28T06:57:00.824Z,99.90
2022-09-28T06:59:31.474Z,99.90
2022-09-28T07:02:04.626Z,99.90
2022-09-28T07:04:34.739Z,99.90
2022-09-28T07:07:07.890Z,99.90
2022-09-28T07:09:50.314Z,99.90
2022-09-28T07:12:23.308Z,99.90
2022-09-28T07:14:56.339Z,99.90
2022-09-28T07:17:31.462Z,99.90
2022-09-28T07:20:11.480Z,99.90
2022-09-28T07:22:48.544Z,99.90
2022-09-28T07:25:21.328Z,99.90
2022-09-28T07:27:57.331Z,99.90
2022-09-28T07:30:27.920Z,99.90
2022-09-28T07:32:58.352Z,99.90
2022-09-28T07:35:29.106Z,99.90
2022-09-28T07:38:06.648Z,99.90
2022-09-28T07:40:52.241Z,99.90
2022-09-28T07:43:23.591Z,99.90
2022-09-28T07:45:56.920Z,99.90
2022-09-28T07:48:27.068Z,99.90
2022-09-28T07:51:00.140Z,99.90
2022-09-28T07:53:33.756Z,99.90
2022-09-28T07:56:17.394Z,99.90
2022-09-28T07:58:49.277Z,99.90
2022-09-28T08:01:20.355Z,99.90
2022-09-28T08:03:56.433Z,99.90
2022-09-28T08:06:29.487Z,99.90
2022-09-28T08:09:01.812Z,99.90
2022-09-28T08:11:34.492Z,99.90
2022-09-28T08:14:04.608Z,99.90
2022-09-28T08:16:34.821Z,99.90
2022-09-28T08:19:05.000Z,99.90
2022-09-28T08:21:47.911Z,99.90
2022-09-28T08:24:20.155Z,99.90
2022-09-28T08:26:55.655Z,99.90
2022-09-28T08:29:28.450Z,99.90
2022-09-28T08:32:01.513Z,99.90
2022-09-28T08:34:32.040Z,99.90
2022-09-28T08:37:04.619Z,99.90
2022-09-28T08:39:34.748Z,99.90
2022-09-28T08:42:27.234Z,99.90
2022-09-28T08:45:10.627Z,99.90
2022-09-28T08:48:09.583Z,99.90
2022-09-28T08:51:03.543Z,95.40
2022-09-28T08:53:45.552Z,45.20
2022-09-28T08:56:37.195Z,71.90
2022-09-28T08:59:22.720Z,94.80
2022-09-28T09:01:59.768Z,93.30
2022-09-28T09:04:30.201Z,98.20
2022-09-28T09:07:30.919Z,93.10
2022-09-28T09:10:21.956Z,30.30
2022-09-28T09:13:05.238Z,1.00
2022-09-28T09:15:58.398Z,1.00
2022-09-28T09:18:40.115Z,1.00
2022-09-28T09:21:22.204Z,1.00
2022-09-28T09:24:01.663Z,1.00
2022-09-28T09:26:41.203Z,1.00
2022-09-28T09:29:34.286Z,1.00
2022-09-28T09:32:30.704Z,1.00
2022-09-28T09:35:28.944Z,4.50
2022-09-28T09:38:27.838Z,13.20
2022-09-28T09:41:24.204Z,52.10
2022-09-28T09:44:16.897Z,18.20
2022-09-28T09:46:57.298Z,29.30
2022-09-28T09:49:41.035Z,25.80
2022-09-28T09:52:21.801Z,27.00
2022-09-28T09:54:58.643Z,52.80
2022-09-28T09:57:37.639Z,1.00
2022-09-28T10:00:15.603Z,1.00
2022-09-28T10:02:53.512Z,1.00
2022-09-28T10:05:32.256Z,1.00
2022-09-28T10:08:13.875Z,1.00
2022-09-28T10:10:55.920Z,1.00
2022-09-28T10:13:34.030Z,41.00
2022-09-28T10:16:04.979Z,22.40
2022-09-28T10:18:35.479Z,1.00
2022-09-28T10:21:08.687Z,1.00
2022-09-28T10:23:44.464Z,1.00
2022-09-28T10:26:25.150Z,1.00
2022-09-28T10:29:01.677Z,1.00
2022-09-28T10:31:41.894Z,1.00
2022-09-28T10:34:19.676Z,1.00
2022-09-28T10:36:58.572Z,1.00
2022-09-28T10:39:39.419Z,1.00
2022-09-28T10:42:14.252Z,1.00
2022-09-28T10:44:59.248Z,1.00
2022-09-28T10:47:33.397Z,1.00
2022-09-28T10:50:04.171Z,1.00
2022-09-28T10:52:45.839Z,40.00
2022-09-28T10:55:32.475Z,35.10
2022-09-28T10:58:03.545Z,26.40
2022-09-28T11:00:40.156Z,61.30
2022-09-28T11:03:24.135Z,23.70
2022-09-28T11:06:00.930Z,1.00
2022-09-28T11:08:41.594Z,1.00
2022-09-28T11:11:18.099Z,1.00
2022-09-28T11:13:54.234Z,1.00
2022-09-28T11:16:39.392Z,1.00
2022-09-28T11:19:31.672Z,1.00
2022-09-28T11:22:01.837Z,1.00
2022-09-28T11:24:39.947Z,99.90
2022-09-28T11:27:25.360Z,1.00
2022-09-28T11:30:04.824Z,1.00
2022-09-28T11:32:49.408Z,1.00
2022-09-28T11:35:40.334Z,1.00
2022-09-28T11:38:39.799Z,1.00
2022-09-28T11:41:50.982Z,1.00
2022-09-28T11:44:49.517Z,1.00
2022-09-28T11:47:50.792Z,1.00
2022-09-28T11:50:32.188Z,1.00
2022-09-28T11:53:20.548Z,1.00
2022-09-28T11:56:03.301Z,1.00
2022-09-28T11:58:49.154Z,8.50
2022-09-28T12:01:31.321Z,1.00
2022-09-28T12:04:09.301Z,1.00
2022-09-28T12:06:51.328Z,1.00
2022-09-28T12:09:30.019Z,1.90
2022-09-28T12:12:10.004Z,1.00
2022-09-28T12:14:44.900Z,10.50
2022-09-28T12:17:28.905Z,16.20
2022-09-28T12:20:12.047Z,4.90
2022-09-28T12:22:49.367Z,19.80
2022-09-28T12:25:25.563Z,14.70
2022-09-28T12:28:02.825Z,15.10
2022-09-28T12:30:44.784Z,33.60
2022-09-28T12:33:17.764Z,45.10
2022-09-28T12:36:07.910Z,56.50
2022-09-28T12:39:21.657Z,58.50
2022-09-28T12:42:12.002Z,58.60
2022-09-28T12:45:24.740Z,60.50
2022-09-28T12:48:33.363Z,61.30
2022-09-28T12:51:20.667Z,97.30
2022-09-28T12:54:16.648Z,99.90
2022-09-28T12:57:04.271Z,99.90
2022-09-28T12:59:42.030Z,95.90
2022-09-28T13:03:10.285Z,99.90
2022-09-28T13:06:27.922Z,99.90
2022-09-28T13:09:23.428Z,99.90
2022-09-28T13:12:17.955Z,99.90
2022-09-28T13:15:23.630Z,99.90
2022-09-28T13:18:07.833Z,99.90
2022-09-28T13:21:06.866Z,99.90
2022-09-28T13:23:44.199Z,99.90
2022-09-28T13:26:37.089Z,99.90
2022-09-28T13:29:27.027Z,99.90
2022-09-28T13:32:03.938Z,99.90
2022-09-28T13:34:41.379Z,99.90
2022-09-28T13:37:24.242Z,99.90
2022-09-28T13:39:59.142Z,99.90
2022-09-28T13:43:18.907Z,99.90
2022-09-28T13:45:56.883Z,99.90
2022-09-28T13:48:53.582Z,99.90
2022-09-28T13:51:46.116Z,99.90
2022-09-28T13:54:52.440Z,99.90
2022-09-28T13:57:30.711Z,99.90
2022-09-28T14:00:18.425Z,99.90
2022-09-28T14:02:55.608Z,99.90
2022-09-28T14:06:08.174Z,99.90
2022-09-28T14:08:46.899Z,99.90
2022-09-28T14:11:59.820Z,99.90
2022-09-28T14:14:55.414Z,99.90
2022-09-28T14:18:08.394Z,99.90
2022-09-28T14:20:41.864Z,99.90
2022-09-28T14:24:00.917Z,84.90
2022-09-28T14:27:10.820Z,69.10
2022-09-28T14:29:42.720Z,66.30
2022-09-28T14:32:37.478Z,54.30
2022-09-28T14:35:18.842Z,20.70
2022-09-28T14:38:05.377Z,28.70
2022-09-28T14:41:13.987Z,52.50
2022-09-28T14:44:09.297Z,64.70
2022-09-28T14:46:45.608Z,82.20
2022-09-28T14:49:51.270Z,87.70
2022-09-28T14:52:45.861Z,97.70
2022-09-28T14:55:32.240Z,92.60
2022-09-28T15:00:45.276Z,90.70
2022-09-28T15:03:17.499Z,92.50
2022-09-28T15:05:52.777Z,96.90
2022-09-28T15:08:24.544Z,98.70
2022-09-28T15:10:56.417Z,91.30
2022-09-28T15:13:30.554Z,92.10
2022-09-28T15:16:14.096Z,96.10
2022-09-28T15:19:24.617Z,99.30
2022-09-28T15:22:00.571Z,95.60
2022-09-28T15:24:34.645Z,95.80
2022-09-28T15:27:20.255Z,97.10
2022-09-28T15:30:02.507Z,63.40
2022-09-28T15:32:39.017Z,73.00
2022-09-28T15:35:20.733Z,88.40
2022-09-28T15:37:55.531Z,69.90
2022-09-28T15:40:38.067Z,86.70
2022-09-28T15:43:29.115Z,73.70
2022-09-28T15:46:02.722Z,78.30
2022-09-28T15:48:59.269Z,83.70
2022-09-28T15:51:50.079Z,91.60
2022-09-28T15:54:26.347Z,60.70
2022-09-28T15:56:59.998Z,43.50
2022-09-28T15:59:35.039Z,56.90
2022-09-28T16:02:23.465Z,53.40
2022-09-28T16:04:58.967Z,62.80
2022-09-28T16:07:38.423Z,85.90
2022-09-28T16:10:37.114Z,94.00
2022-09-28T16:13:20.619Z,99.90
2022-09-28T16:16:00.034Z,99.90
2022-09-28T16:18:33.827Z,99.90
2022-09-28T16:21:33.830Z,99.90
2022-09-28T16:24:04.473Z,99.90
2022-09-28T16:26:40.477Z,99.90
2022-09-28T16:29:27.738Z,99.90
2022-09-28T16:32:02.438Z,99.90
2022-09-28T16:34:32.727Z,99.90
2022-09-28T16:37:05.323Z,99.90
2022-09-28T16:39:36.167Z,99.90
2022-09-28T16:42:11.155Z,99.90
2022-09-28T16:44:48.044Z,99.90
2022-09-28T16:47:18.144Z,99.90
2022-09-28T16:49:48.468Z,99.90
2022-09-28T16:52:39.012Z,99.90
2022-09-28T16:58:13.108Z,99.90
2022-09-28T17:00:43.843Z,99.90
2022-09-28T17:03:25.021Z,99.90
2022-09-28T17:05:56.810Z,99.90
2022-09-28T17:08:28.248Z,99.90
2022-09-28T17:11:24.134Z,99.90
2022-09-28T17:14:00.194Z,99.90
2022-09-28T17:17:06.200Z,99.90
2022-09-28T17:19:29.896Z,99.90
2022-09-28T17:21:59.977Z,99.90
2022-09-28T17:24:33.168Z,99.90
2022-09-28T17:27:03.605Z,99.90
2022-09-28T17:29:41.596Z,99.90
2022-09-28T17:32:20.166Z,99.90
2022-09-28T17:35:19.791Z,99.90
2022-09-28T17:37:49.281Z,99.90
2022-09-28T17:40:24.183Z,99.90
2022-09-28T17:42:56.137Z,99.90
2022-09-28T17:45:31.320Z,99.90
2022-09-28T17:48:01.651Z,99.90
2022-09-28T17:50:37.429Z,99.90
2022-09-28T17:53:12.887Z,99.90
2022-09-28T17:55:46.439Z,99.90
2022-09-28T17:58:21.092Z,99.90
2022-09-28T18:00:57.122Z,99.90
2022-09-28T18:03:30.468Z,99.90
2022-09-28T18:06:07.711Z,99.90
2022-09-28T18:08:39.511Z,99.90
2022-09-28T18:11:09.959Z,99.90
2022-09-28T18:13:43.565Z,99.90
2022-09-28T18:16:19.569Z,99.90
2022-09-28T18:18:52.592Z,99.90
2022-09-28T18:21:22.687Z,99.90
2022-09-28T18:23:52.959Z,99.90
2022-09-28T18:26:26.265Z,99.90
2022-09-28T18:28:58.183Z,99.90
2022-09-28T18:31:31.130Z,99.90
2022-09-28T18:34:02.781Z,99.90
2022-09-28T18:39:21.809Z,99.90
2022-09-28T18:41:51.885Z,99.90
2022-09-28T18:44:22.101Z,99.90
2022-09-28T18:46:57.322Z,99.90
2022-09-28T18:49:28.333Z,99.90
2022-09-28T18:51:58.742Z,99.90
2022-09-28T18:54:28.803Z,99.90
2022-09-28T18:56:59.446Z,99.90
2022-09-28T18:59:32.049Z,99.90
2022-09-28T19:02:04.869Z,99.90
2022-09-28T19:04:35.023Z,99.90
2022-09-28T19:07:05.175Z,99.90
2022-09-28T19:09:35.533Z,99.90
2022-09-28T19:12:05.641Z,99.90
2022-09-28T19:14:35.714Z,99.90
2022-09-28T19:17:10.081Z,99.90
2022-09-28T19:19:42.746Z,99.90
2022-09-28T19:22:12.878Z,99.90
2022-09-28T19:24:43.111Z,99.90
2022-09-28T19:27:13.311Z,99.90
2022-09-28T19:29:43.377Z,99.90
2022-09-28T19:32:18.240Z,99.90
2022-09-28T19:34:48.725Z,99.90
2022-09-28T19:37:18.779Z,99.90
2022-09-28T19:39:48.879Z,99.90
2022-09-28T19:42:18.917Z,99.90
2022-09-28T19:44:49.045Z,99.90
2022-09-28T19:47:21.722Z,99.90
2022-09-28T19:49:51.823Z,99.90
2022-09-28T19:52:22.129Z,99.90
2022-09-28T19:54:57.469Z,99.90
2022-09-28T19:57:29.790Z,99.90
2022-09-28T20:00:03.922Z,99.90
2022-09-28T20:02:37.023Z,99.90
2022-09-28T20:05:08.196Z,99.90
2022-09-28T20:07:39.806Z,99.90
2022-09-28T20:10:13.042Z,99.90
2022-09-28T20:12:43.259Z,99.90
2022-09-28T20:15:13.982Z,99.90
2022-09-28T20:17:57.702Z,99.90
2022-09-28T20:20:28.880Z,99.90
2022-09-28T20:23:02.533Z,99.90
2022-09-28T20:25:32.604Z,99.90
2022-09-28T20:28:05.276Z,99.90
2022-09-28T20:30:38.463Z,99.90
2022-09-28T20:33:19.164Z,99.90
2022-09-28T20:35:57.909Z,99.90
2022-09-28T20:38:30.475Z,99.90
2022-09-28T20:41:03.976Z,99.90
2022-09-28T20:43:34.969Z,99.90
2022-09-28T20:46:12.613Z,99.90
2022-09-28T20:48:50.261Z,99.90
2022-09-28T20:51:22.691Z,99.90
2022-09-28T20:53:57.619Z,99.90
2022-09-28T20:56:37.595Z,99.90
2022-09-28T20:59:10.500Z,99.90
2022-09-28T21:01:43.495Z,99.90
2022-09-28T21:04:28.416Z,99.90
2022-09-28T21:06:58.518Z,99.90
2022-09-28T21:09:30.075Z,99.90
2022-09-28T21:12:06.874Z,99.90
2022-09-28T21:14:36.969Z,99.90
2022-09-28T21:17:07.096Z,99.90
2022-09-28T21:19:39.772Z,99.90
2022-09-28T21:22:12.733Z,99.90
2022-09-28T21:24:42.776Z,99.90
2022-09-28T21:27:15.927Z,99.90
2022-09-28T21:29:49.010Z,99.90
2022-09-28T21:32:19.099Z,99.90
2022-09-28T21:34:52.581Z,99.90
2022-09-28T21:37:22.591Z,99.90
2022-09-28T21:39:55.344Z,99.90
2022-09-28T21:42:25.475Z,99.90
2022-09-28T21:44:59.389Z,99.90
2022-09-28T21:47:32.560Z,99.90
2022-09-28T21:50:06.762Z,99.90
2022-09-28T21:52:36.828Z,99.90
2022-09-28T21:55:12.015Z,99.90
2022-09-28T21:57:45.459Z,99.90
2022-09-28T22:00:17.217Z,99.90
2022-09-28T22:02:48.429Z,99.90
2022-09-28T22:05:21.947Z,99.90
2022-09-28T22:07:52.053Z,99.90
2022-09-28T22:10:25.013Z,99.90
2022-09-28T22:12:55.096Z,99.90
2022-09-28T22:15:25.207Z,99.90
2022-09-28T22:17:55.258Z,99.90
2022-09-28T22:20:35.174Z,99.90
2022-09-28T22:23:05.275Z,99.90
2022-09-28T22:25:35.332Z,99.90
2022-09-28T22:28:11.080Z,99.90
2022-09-28T22:30:44.241Z,99.90
2022-09-28T22:33:14.342Z,99.90
2022-09-28T22:35:49.149Z,99.90
2022-09-28T22:38:23.881Z,99.90
2022-09-28T22:40:59.266Z,99.90
2022-09-28T22:43:33.206Z,99.90
2022-09-28T22:46:20.671Z,99.90
2022-09-28T22:48:55.221Z,99.90
2022-09-28T22:51:34.605Z,99.90
2022-09-28T22:54:04.908Z,99.90
2022-09-28T22:56:37.819Z,99.90
2022-09-28T22:59:12.627Z,99.90
2022-09-28T23:01:42.811Z,99.90
2022-09-28T23:04:13.029Z,99.90
2022-09-28T23:06:45.830Z,99.90
2022-09-28T23:09:15.841Z,99.90
2022-09-28T23:11:48.803Z,99.90
2022-09-28T23:14:19.191Z,99.90
2022-09-28T23:16:51.939Z,99.90
2022-09-28T23:19:24.554Z,99.90
2022-09-28T23:21:59.372Z,99.90
2022-09-28T23:24:37.834Z,99.90
2022-09-28T23:27:07.976Z,99.90
2022-09-28T23:29:42.636Z,99.90
2022-09-28T23:32:12.732Z,99.90
2022-09-28T23:34:43.579Z,99.90
2022-09-28T23:37:16.264Z,99.90
2022-09-28T23:39:46.528Z,99.90
2022-09-28T23:42:25.233Z,99.90
2022-09-28T23:44:55.467Z,99.90
2022-09-28T23:47:25.739Z,99.90
2022-09-28T23:49:58.896Z,99.90
2022-09-28T23:52:31.606Z,99.90
2022-09-28T23:55:01.652Z,99.90
2022-09-28T23:57:33.897Z,99.90
